KSTS/STS METAR and TAF weather

Enter ICAO airport designator
Station Type Date Time Source
KSTS METAR 2021/05/11 00:53 UTC NOAA

KSTS 110053Z 26011KT 10SM CLR 30/03 A2981 RMK AO2 SLP088 T03000033


Station Type Date Time Source
KSTS Decoded METAR 2021/05/11 00:53 UTC NOAA

SANTA ROSA SONOMA COUNTY, CA, United States (KSTS) 38-30N 122-49W 39M
May 10, 2021 - 08:53 PM EDT / 2021.05.11 0053 UTC
Wind: from the W (260 degrees) at 13 MPH (11 KT):0
Visibility: 10 mile(s):0
Sky conditions: clear
Temperature: 86.0 F (30.0 C)
Dew Point: 37.9 F (3.3 C)
Relative Humidity: 18%
Pressure (altimeter): 29.81 in. Hg (1009 hPa)
ob: KSTS 110053Z 26011KT 10SM CLR 30/03 A2981 RMK AO2 SLP088 T03000033
cycle: 1

Station Type Date Time Source
KSTS TAF 2021/05/10 18:39 UTC NOAA

TAF KSTS 101737Z 1018/1118 35012KT P6SM SKC
FM110200 35007KT P6SM SKC WS015/02020KT
FM110700 VRB05KT P6SM SKC

Example: see airport list